Cottbus-Drewitz Airport


Codes: EDCD/CBU
Name: Cottbus-Drewitz Airport
City: Cottbus
Country: Germany
Elevation: 272 ft.

Photos at Cottbus-Drewitz Airport


   Photos courtesy of SpottingLog. You can add your own sightings and photos by signing up for a free trial today.



No photos found.

Weather at Cottbus-Drewitz Airport


Time (UTC)DescriptionTempratureWindCloud coverageVisibilityPressureHumidity
26-Jun-2024 00:00Clear Sky20°C9 mph, E0%10000m1015hPa80%
26-Jun-2024 03:00Clear Sky19°C7 mph, E1%10000m1015hPa82%
26-Jun-2024 06:00Clear Sky21°C11 mph, E1%10000m1014hPa70%
26-Jun-2024 09:00Clear Sky27°C11 mph, E4%10000m1013hPa48%
26-Jun-2024 12:00Clear Sky31°C9 mph, E10%10000m1012hPa36%
26-Jun-2024 15:00Overcast Clouds32°C11 mph, E92%10000m1010hPa36%
26-Jun-2024 18:00Overcast Clouds27°C7 mph, SE91%10000m1010hPa56%
26-Jun-2024 21:00Overcast Clouds22°C7 mph, E99%10000m1011hPa71%
27-Jun-2024 00:00Overcast Clouds20°C7 mph, E90%10000m1010hPa76%
27-Jun-2024 03:00Broken Clouds19°C7 mph, E52%10000m1010hPa83%
27-Jun-2024 06:00Broken Clouds24°C7 mph, SE76%10000m1009hPa66%
27-Jun-2024 09:00Overcast Clouds29°C7 mph, SE98%10000m1009hPa45%
27-Jun-2024 12:00Broken Clouds32°C9 mph, SE84%10000m1008hPa36%
27-Jun-2024 15:00Broken Clouds31°C9 mph, S80%10000m1007hPa38%
27-Jun-2024 18:00Light Rain25°C9 mph, E85%10000m1008hPa64%
27-Jun-2024 21:00Moderate Rain22°C4 mph, E90%10000m1009hPa81%
28-Jun-2024 00:00Light Rain20°C7 mph, SW63%10000m1009hPa92%
28-Jun-2024 03:00Broken Clouds19°C7 mph, SW66%10000m1010hPa94%
28-Jun-2024 06:00Scattered Clouds23°C9 mph, SW46%10000m1012hPa78%
28-Jun-2024 09:00Light Rain28°C11 mph, W82%10000m1012hPa56%
28-Jun-2024 12:00Broken Clouds30°C16 mph, W56%10000m1013hPa45%
28-Jun-2024 15:00Overcast Clouds26°C13 mph, NW99%10000m1015hPa57%
28-Jun-2024 18:00Overcast Clouds24°C11 mph, NW88%10000m1017hPa47%
28-Jun-2024 21:00Broken Clouds18°C4 mph, NW63%10000m1019hPa59%
29-Jun-2024 00:00Scattered Clouds15°C4 mph, N33%10000m1020hPa70%
29-Jun-2024 03:00Clear Sky14°C4 mph, E6%10000m1020hPa78%
29-Jun-2024 06:00Few Clouds20°C4 mph, E24%10000m1019hPa61%
29-Jun-2024 09:00Scattered Clouds25°C7 mph, SE34%10000m1018hPa40%
29-Jun-2024 12:00Few Clouds30°C4 mph, SE21%10000m1015hPa32%
29-Jun-2024 15:00Clear Sky31°C4 mph, SE7%10000m1013hPa33%
29-Jun-2024 18:00Clear Sky29°C4 mph, E9%10000m1010hPa51%
29-Jun-2024 21:00Light Rain23°C9 mph, E9%10000m1008hPa64%
30-Jun-2024 00:00Scattered Clouds23°C9 mph, SE38%10000m1006hPa74%
30-Jun-2024 03:00Overcast Clouds22°C4 mph, S100%10000m1005hPa79%
30-Jun-2024 06:00Overcast Clouds25°C11 mph, SW93%10000m1005hPa70%
30-Jun-2024 09:00Scattered Clouds29°C11 mph, SW47%10000m1005hPa51%
30-Jun-2024 12:00Scattered Clouds32°C16 mph, SW38%10000m1004hPa39%
30-Jun-2024 15:00Scattered Clouds30°C20 mph, W28%10000m1005hPa42%
30-Jun-2024 18:00Broken Clouds22°C16 mph, NW59%10000m1006hPa61%
30-Jun-2024 21:00Light Rain18°C9 mph, W99%10000m1009hPa77%